createdAt,value
2023-05-05T00:02:35.085Z,24.50
2023-05-05T00:07:38.267Z,24.60
2023-05-05T00:12:42.823Z,24.50
2023-05-05T00:17:46.435Z,24.60
2023-05-05T00:22:49.588Z,24.50
2023-05-05T00:27:54.148Z,24.50
2023-05-05T00:32:57.472Z,24.50
2023-05-05T00:38:00.701Z,24.40
2023-05-05T00:43:05.281Z,24.50
2023-05-05T00:48:08.774Z,24.40
2023-05-05T00:53:13.075Z,24.60
2023-05-05T00:58:17.628Z,24.50
2023-05-05T01:03:20.612Z,24.50
2023-05-05T01:08:37.236Z,24.50
2023-05-05T01:13:55.534Z,24.40
2023-05-05T01:19:02.138Z,24.50
2023-05-05T01:24:28.261Z,24.50
2023-05-05T01:29:51.866Z,24.40
2023-05-05T01:34:59.840Z,24.40
2023-05-05T01:40:08.167Z,24.40
2023-05-05T01:45:13.952Z,24.50
2023-05-05T01:50:19.010Z,24.50
2023-05-05T01:55:23.225Z,24.50
2023-05-05T02:00:27.001Z,24.50
2023-05-05T02:05:33.368Z,24.40
2023-05-05T02:10:37.337Z,24.40
2023-05-05T02:15:41.082Z,24.40
2023-05-05T02:20:46.673Z,24.40
2023-05-05T02:25:51.460Z,24.40
2023-05-05T02:30:57.523Z,24.40
2023-05-05T02:36:08.110Z,24.40
2023-05-05T02:41:14.838Z,24.40
2023-05-05T02:46:18.761Z,24.30
2023-05-05T02:51:22.904Z,24.40
2023-05-05T02:56:35.434Z,24.40
2023-05-05T03:01:46.447Z,24.30
2023-05-05T03:06:52.220Z,24.40
2023-05-05T03:12:01.007Z,24.40
2023-05-05T03:17:04.805Z,24.30
2023-05-05T03:22:09.446Z,24.30
2023-05-05T03:27:12.374Z,24.40
2023-05-05T03:32:15.515Z,24.30
2023-05-05T03:37:19.728Z,24.30
2023-05-05T03:42:22.510Z,24.30
2023-05-05T03:47:25.694Z,24.40
2023-05-05T03:52:30.327Z,24.30
2023-05-05T03:57:36.107Z,24.30
2023-05-05T04:02:39.042Z,24.30
2023-05-05T04:07:43.259Z,24.40
2023-05-05T04:12:46.281Z,24.30
2023-05-05T04:17:49.145Z,24.30
2023-05-05T04:22:53.451Z,24.30
2023-05-05T04:27:56.420Z,24.30
2023-05-05T04:32:59.332Z,24.30
2023-05-05T04:38:03.688Z,24.30
2023-05-05T04:43:07.474Z,24.30
2023-05-05T04:48:10.386Z,24.30
2023-05-05T04:53:14.610Z,24.30
2023-05-05T04:58:17.487Z,24.20
2023-05-05T05:03:20.333Z,24.30
2023-05-05T05:08:24.524Z,24.30
2023-05-05T05:13:27.352Z,24.30
2023-05-05T05:18:30.289Z,24.30
2023-05-05T05:23:34.540Z,24.30
2023-05-05T05:28:37.391Z,24.30
2023-05-05T05:33:40.288Z,24.30
2023-05-05T05:38:44.494Z,24.40
2023-05-05T05:43:50.269Z,24.40
2023-05-05T05:48:53.086Z,24.40
2023-05-05T05:53:58.747Z,24.40
2023-05-05T05:59:04.567Z,24.40
2023-05-05T06:04:07.621Z,24.30
2023-05-05T06:09:11.936Z,24.40
2023-05-05T06:14:14.825Z,24.40
2023-05-05T06:19:17.878Z,24.40
2023-05-05T06:24:22.101Z,24.40
2023-05-05T06:29:24.958Z,24.40
2023-05-05T06:34:27.830Z,24.50
2023-05-05T06:39:31.991Z,24.40
2023-05-05T06:44:36.454Z,24.40
2023-05-05T06:49:39.263Z,24.50
2023-05-05T06:54:44.764Z,24.50
2023-05-05T06:59:47.537Z,24.50
2023-05-05T07:04:50.981Z,24.50
2023-05-05T07:09:55.153Z,24.30
2023-05-05T07:14:58.091Z,24.20
2023-05-05T07:20:00.885Z,24.20
2023-05-05T07:25:06.081Z,24.20
2023-05-05T07:30:14.085Z,24.40
2023-05-05T07:35:18.408Z,24.20
2023-05-05T07:40:22.746Z,24.30
2023-05-05T07:45:25.560Z,24.30
2023-05-05T07:50:28.441Z,24.40
2023-05-05T07:55:32.647Z,24.40
2023-05-05T08:00:35.624Z,24.40
2023-05-05T08:05:39.220Z,24.60
2023-05-05T08:10:43.422Z,24.60
2023-05-05T08:15:46.260Z,24.70
2023-05-05T08:20:49.067Z,24.60
2023-05-05T08:25:53.328Z,24.60
2023-05-05T08:30:56.223Z,24.50
2023-05-05T08:35:59.234Z,24.60
2023-05-05T08:41:03.975Z,24.30
2023-05-05T08:46:07.399Z,24.40
2023-05-05T08:51:10.982Z,24.50
2023-05-05T08:56:15.994Z,24.60
2023-05-05T09:01:19.370Z,24.60
2023-05-05T09:06:23.391Z,24.80
2023-05-05T09:11:29.101Z,24.70
2023-05-05T09:16:32.139Z,24.90
2023-05-05T09:21:35.136Z,24.90
2023-05-05T09:26:40.486Z,24.90
2023-05-05T09:31:43.459Z,25.00
2023-05-05T09:36:48.145Z,24.60
2023-05-05T09:41:52.331Z,24.60
2023-05-05T09:46:58.218Z,24.70
2023-05-05T09:52:12.920Z,24.80
2023-05-05T09:57:31.666Z,25.00
2023-05-05T10:02:36.153Z,25.00
2023-05-05T10:07:40.011Z,25.10
2023-05-05T10:12:44.428Z,25.10
2023-05-05T10:18:05.322Z,25.20
2023-05-05T10:23:11.934Z,25.40
2023-05-05T10:28:22.218Z,25.40
2023-05-05T10:33:36.284Z,25.40
2023-05-05T10:38:39.369Z,25.30
2023-05-05T10:43:43.759Z,25.40
2023-05-05T10:48:51.039Z,25.50
2023-05-05T10:53:58.182Z,25.60
2023-05-05T10:59:02.342Z,25.60
2023-05-05T11:04:18.506Z,25.60
2023-05-05T11:09:28.492Z,25.50
2023-05-05T11:14:32.674Z,25.50
2023-05-05T11:19:48.557Z,25.40
2023-05-05T11:24:51.458Z,25.40
2023-05-05T11:30:10.625Z,25.50
2023-05-05T11:35:14.247Z,25.40
2023-05-05T11:40:22.867Z,25.50
2023-05-05T11:45:27.071Z,25.40
2023-05-05T11:50:34.158Z,25.40
2023-05-05T11:55:37.026Z,25.30
2023-05-05T12:00:41.200Z,25.40
2023-05-05T12:05:44.141Z,25.40
2023-05-05T12:10:47.084Z,25.40
2023-05-05T12:15:51.636Z,25.30
2023-05-05T12:20:54.814Z,25.40
2023-05-05T12:25:57.644Z,25.40
2023-05-05T12:31:02.364Z,25.40
2023-05-05T12:36:05.654Z,25.40
2023-05-05T12:41:08.506Z,25.30
2023-05-05T12:46:13.422Z,25.40
2023-05-05T12:51:20.748Z,25.50
2023-05-05T12:56:30.463Z,25.50
2023-05-05T13:01:36.640Z,25.50
2023-05-05T13:06:40.066Z,25.50
2023-05-05T13:11:42.923Z,25.40
2023-05-05T13:16:47.188Z,25.40
2023-05-05T13:21:50.186Z,25.50
2023-05-05T13:26:53.263Z,25.50
2023-05-05T13:31:57.397Z,25.50
2023-05-05T13:37:00.190Z,25.50
2023-05-05T13:42:03.006Z,25.50
2023-05-05T13:47:07.390Z,25.60
2023-05-05T13:52:10.431Z,25.70
2023-05-05T13:57:13.432Z,25.70
2023-05-05T14:02:17.653Z,25.70
2023-05-05T14:07:21.616Z,25.90
2023-05-05T14:12:24.677Z,25.80
2023-05-05T14:17:28.869Z,25.90
2023-05-05T14:22:34.373Z,26.00
2023-05-05T14:27:37.280Z,26.20
2023-05-05T14:32:41.606Z,26.30
2023-05-05T14:37:44.667Z,26.50
2023-05-05T14:42:47.713Z,26.50
2023-05-05T14:47:51.958Z,26.60
2023-05-05T14:52:54.777Z,26.80
2023-05-05T14:57:57.627Z,27.00
2023-05-05T15:03:01.965Z,27.30
2023-05-05T15:08:04.943Z,27.60
2023-05-05T15:13:07.952Z,28.70
2023-05-05T15:18:12.253Z,28.70
2023-05-05T15:23:15.363Z,28.00
2023-05-05T15:28:18.663Z,27.50
2023-05-05T15:33:22.815Z,27.30
2023-05-05T15:38:25.750Z,27.20
2023-05-05T15:43:28.711Z,27.20
2023-05-05T15:48:35.018Z,28.80
2023-05-05T15:53:38.743Z,29.50
2023-05-05T15:58:41.595Z,28.80
2023-05-05T16:03:45.991Z,28.40
2023-05-05T16:08:51.617Z,30.80
2023-05-05T16:13:54.687Z,32.80
2023-05-05T16:18:58.865Z,33.70
2023-05-05T16:24:01.645Z,34.10
2023-05-05T16:29:04.483Z,34.00
2023-05-05T16:34:08.623Z,31.30
2023-05-05T16:39:11.968Z,29.80
2023-05-05T16:44:15.709Z,32.20
2023-05-05T16:49:19.865Z,33.20
2023-05-05T16:54:23.129Z,32.70
2023-05-05T16:59:25.989Z,31.80
2023-05-05T17:04:30.116Z,30.90
2023-05-05T17:09:32.946Z,29.60
2023-05-05T17:14:35.869Z,28.80
2023-05-05T17:19:40.007Z,28.50
2023-05-05T17:24:43.075Z,28.10
2023-05-05T17:29:45.925Z,27.80
2023-05-05T17:34:50.471Z,27.60
2023-05-05T17:39:53.409Z,27.30
2023-05-05T17:44:57.515Z,27.30
2023-05-05T17:50:01.888Z,27.10
2023-05-05T17:55:06.319Z,27.00
2023-05-05T18:00:10.175Z,26.90
2023-05-05T18:05:15.219Z,26.90
2023-05-05T18:10:18.086Z,26.80
2023-05-05T18:15:20.935Z,26.80
2023-05-05T18:20:25.154Z,26.60
2023-05-05T18:25:28.044Z,26.60
2023-05-05T18:30:31.049Z,26.50
2023-05-05T18:35:35.599Z,26.50
2023-05-05T18:40:38.720Z,26.50
2023-05-05T18:45:41.795Z,26.40
2023-05-05T18:50:46.786Z,26.20
2023-05-05T18:55:50.751Z,26.30
2023-05-05T19:00:53.580Z,26.30
2023-05-05T19:05:57.750Z,26.20
2023-05-05T19:11:00.642Z,26.10
2023-05-05T19:16:03.644Z,26.10
2023-05-05T19:21:07.965Z,26.00
2023-05-05T19:26:11.578Z,26.00
2023-05-05T19:31:14.421Z,26.00
2023-05-05T19:36:19.277Z,26.00
2023-05-05T19:41:22.120Z,25.90
2023-05-05T19:46:26.314Z,25.80
2023-05-05T19:51:31.523Z,25.80
2023-05-05T19:56:34.343Z,25.80
2023-05-05T20:01:37.308Z,25.80
2023-05-05T20:06:41.818Z,25.80
2023-05-05T20:11:44.581Z,25.70
2023-05-05T20:16:47.959Z,25.70
2023-05-05T20:21:52.355Z,25.70
2023-05-05T20:26:55.190Z,25.70
2023-05-05T20:31:58.630Z,25.60
2023-05-05T20:37:02.867Z,25.60
2023-05-05T20:42:05.901Z,25.60
2023-05-05T20:47:08.886Z,25.60
2023-05-05T20:52:13.236Z,25.60
2023-05-05T20:57:16.118Z,25.60
2023-05-05T21:02:19.060Z,25.50
2023-05-05T21:07:24.384Z,25.60
2023-05-05T21:12:28.044Z,25.60
2023-05-05T21:17:31.310Z,25.50
2023-05-05T21:22:35.588Z,25.50
2023-05-05T21:27:38.403Z,25.50
2023-05-05T21:32:41.592Z,25.50
2023-05-05T21:37:45.756Z,25.50
2023-05-05T21:42:49.915Z,25.50
2023-05-05T21:47:52.868Z,25.50
2023-05-05T21:52:57.111Z,25.50
2023-05-05T21:57:59.959Z,25.50
2023-05-05T22:03:03.357Z,25.50
2023-05-05T22:08:07.597Z,25.50
2023-05-05T22:13:11.013Z,25.40
2023-05-05T22:18:13.972Z,25.40
2023-05-05T22:23:18.159Z,25.50
2023-05-05T22:28:21.816Z,25.40
2023-05-05T22:33:24.761Z,25.30
2023-05-05T22:38:28.981Z,25.40
2023-05-05T22:43:31.815Z,25.30
2023-05-05T22:48:34.610Z,25.40
2023-05-05T22:53:39.511Z,25.40
2023-05-05T22:58:42.323Z,25.30
2023-05-05T23:03:45.166Z,25.40
2023-05-05T23:08:49.724Z,25.30
2023-05-05T23:13:52.553Z,25.30
2023-05-05T23:18:55.340Z,25.40
2023-05-05T23:23:59.475Z,25.30
2023-05-05T23:29:02.262Z,25.30
2023-05-05T23:34:05.121Z,25.30
2023-05-05T23:39:09.321Z,25.20
2023-05-05T23:44:12.139Z,25.30
2023-05-05T23:49:16.114Z,25.30
2023-05-05T23:54:20.267Z,25.20
2023-05-05T23:59:23.173Z,25.20
